Check out our new PWSWeather beta!
PWSweather.com
Personal Weather Stations
Station Observations
KTXPLANO60
Highlands Of Russell Park, Plano, TX 75025

Highlands Of Russell ParkPlano, TX 75025

Lat: 33.10431671, Lon: -96.75176239

Elevation: 761

Station Type: Davis Wireless VP2 Plus

http://www.planoweather.com

Latest ConditionsUpdated 12:10:01 PM CST Monday, Feb 24, 2020
Currently Today's Max Today's Min Today's Average
Temperature 60.7°F15.9°C 60.7°F15.9°C 51.2°F10.7°C 56.4°F13.6°C
Dew Point 43.9°F6.6°C 57.9°F14.4°C 41.6°F5.3°C 49.2°F9.6°C
Winds 10.4 mph WSW16.7 kmh WSW 20.7 mph -33.3 kmh - - 13.1 mph 21.1 kmh
Wind Gusts 26.5 mph42.6 kmh 31.1 mph50.1 kmh - -
Humidity 54% 92% 54% 78%
Pressure 29.73 in1006.8 mb 29.75 in1007.5 mb 29.67 in1004.7 mb -
Hour Temp Dew Point Humidity Winds Wind Gusts Pressure Precip Precip Rate Daily Precip Total
12:10 PM 60.7°F15.9°C 43.9°F6.6°C 54% 10.4 mph WSW16.7 kmh WSW 26.5 mph42.6 kmh 29.73 in1006.8 mb - 0.00 in0.0 mm 0.00 in0.0 mm
12:00 PM 58.8°F14.9°C 43.2°F6.2°C 56% 19.6 mph W31.5 kmh W 31.1 mph50.1 kmh 29.73 in1006.8 mb - 0.00 in0.0 mm 0.00 in0.0 mm
11:50 AM 58.7°F14.8°C 43.0°F6.1°C 56% 12.7 mph W20.4 kmh W 16.1 mph25.9 kmh 29.73 in1006.8 mb - 0.00 in0.0 mm 0.00 in0.0 mm
11:40 AM 58.3°F14.6°C 43.1°F6.2°C 57% 15.0 mph WSW24.1 kmh WSW 18.4 mph29.6 kmh 29.73 in1006.8 mb - 0.00 in0.0 mm 0.00 in0.0 mm
11:30 AM 57.5°F14.2°C 42.8°F6.0°C 58% 19.6 mph W31.5 kmh W 21.9 mph35.2 kmh 29.73 in1006.8 mb - 0.00 in0.0 mm 0.00 in0.0 mm
11:20 AM 56.9°F13.8°C 42.3°F5.7°C 58% 16.1 mph WSW25.9 kmh WSW 19.6 mph31.5 kmh 29.73 in1006.8 mb - 0.00 in0.0 mm 0.00 in0.0 mm
11:10 AM 57.1°F13.9°C 42.4°F5.8°C 58% 13.8 mph WSW22.2 kmh WSW 19.6 mph31.5 kmh 29.73 in1006.8 mb - 0.00 in0.0 mm 0.00 in0.0 mm
11:00 AM 56.7°F13.7°C 42.5°F5.8°C 59% 16.1 mph WSW25.9 kmh WSW 29.9 mph48.1 kmh 29.73 in1006.8 mb - 0.00 in0.0 mm 0.00 in0.0 mm
10:50 AM 56.7°F13.7°C 42.5°F5.8°C 59% 13.8 mph WSW22.2 kmh WSW 24.2 mph38.9 kmh 29.73 in1006.8 mb - 0.00 in0.0 mm 0.00 in0.0 mm
10:40 AM 56.1°F13.4°C 42.0°F5.6°C 59% 20.7 mph WSW33.3 kmh WSW 28.8 mph46.3 kmh 29.73 in1006.8 mb - 0.00 in0.0 mm 0.00 in0.0 mm
10:30 AM 56.0°F13.3°C 42.3°F5.7°C 60% 18.4 mph WSW29.6 kmh WSW 31.1 mph50.1 kmh 29.72 in1006.4 mb - 0.00 in0.0 mm 0.00 in0.0 mm
10:20 AM 55.3°F12.9°C 42.1°F5.6°C 61% 17.3 mph WSW27.8 kmh WSW 27.6 mph44.4 kmh 29.72 in1006.4 mb - 0.00 in0.0 mm 0.00 in0.0 mm
10:10 AM 55.4°F13.0°C 42.2°F5.7°C 61% 19.6 mph WSW31.5 kmh WSW 27.6 mph44.4 kmh 29.72 in1006.4 mb - 0.00 in0.0 mm 0.00 in0.0 mm
10:00 AM 54.8°F12.7°C 42.0°F5.6°C 62% 15.0 mph WSW24.1 kmh WSW 18.4 mph29.6 kmh 29.72 in1006.4 mb - 0.00 in0.0 mm 0.00 in0.0 mm
09:50 AM 54.2°F12.3°C 41.9°F5.5°C 63% 16.1 mph WSW25.9 kmh WSW 23.0 mph37.0 kmh 29.72 in1006.4 mb - 0.00 in0.0 mm 0.00 in0.0 mm
09:40 AM 53.9°F12.2°C 42.0°F5.6°C 64% 13.8 mph WSW22.2 kmh WSW 31.1 mph50.1 kmh 29.72 in1006.4 mb - 0.00 in0.0 mm 0.00 in0.0 mm
09:30 AM 53.6°F12.0°C 41.7°F5.4°C 64% 18.4 mph W29.6 kmh W 25.3 mph40.7 kmh 29.73 in1006.8 mb - 0.00 in0.0 mm 0.00 in0.0 mm
09:20 AM 53.1°F11.7°C 41.6°F5.3°C 65% 10.4 mph WSW16.7 kmh WSW 18.4 mph29.6 kmh 29.73 in1006.8 mb - 0.00 in0.0 mm 0.00 in0.0 mm
09:10 AM 52.8°F11.6°C 41.7°F5.4°C 66% 19.6 mph W31.5 kmh W 27.6 mph44.4 kmh 29.73 in1006.8 mb - 0.00 in0.0 mm 0.00 in0.0 mm
09:00 AM 52.9°F11.6°C 42.2°F5.7°C 67% 16.1 mph WSW25.9 kmh WSW 20.7 mph33.3 kmh 29.73 in1006.8 mb - 0.00 in0.0 mm 0.00 in0.0 mm
08:50 AM 52.7°F11.5°C 42.4°F5.8°C 68% 15.0 mph WSW24.1 kmh WSW 26.5 mph42.6 kmh 29.73 in1006.8 mb - 0.00 in0.0 mm 0.00 in0.0 mm
08:40 AM 52.3°F11.3°C 41.7°F5.4°C 67% 18.4 mph WSW29.6 kmh WSW 25.3 mph40.7 kmh 29.73 in1006.8 mb - 0.00 in0.0 mm 0.00 in0.0 mm
08:30 AM 52.1°F11.2°C 41.9°F5.5°C 68% 15.0 mph SW24.1 kmh SW 20.7 mph33.3 kmh 29.72 in1006.4 mb - 0.00 in0.0 mm 0.00 in0.0 mm
08:20 AM 51.9°F11.1°C 42.0°F5.6°C 69% 13.8 mph SW22.2 kmh SW 19.6 mph31.5 kmh 29.72 in1006.4 mb - 0.00 in0.0 mm 0.00 in0.0 mm
08:10 AM 51.7°F10.9°C 42.3°F5.7°C 70% 12.7 mph WSW20.4 kmh WSW 19.6 mph31.5 kmh 29.73 in1006.8 mb - 0.00 in0.0 mm 0.00 in0.0 mm
08:00 AM 51.6°F10.9°C 42.5°F5.8°C 71% 15.0 mph WSW24.1 kmh WSW 25.3 mph40.7 kmh 29.72 in1006.4 mb - 0.00 in0.0 mm 0.00 in0.0 mm
07:50 AM 51.4°F10.8°C 42.7°F5.9°C 72% 12.7 mph WSW20.4 kmh WSW 26.5 mph42.6 kmh 29.72 in1006.4 mb - 0.00 in0.0 mm 0.00 in0.0 mm
07:40 AM 51.4°F10.8°C 43.0°F6.1°C 73% 5.8 mph WSW9.3 kmh WSW 15.0 mph24.1 kmh 29.72 in1006.4 mb - 0.00 in0.0 mm 0.00 in0.0 mm
07:30 AM 51.3°F10.7°C 43.3°F6.3°C 74% 11.5 mph WSW18.5 kmh WSW 18.4 mph29.6 kmh 29.72 in1006.4 mb - 0.00 in0.0 mm 0.00 in0.0 mm
07:20 AM 51.2°F10.7°C 43.5°F6.4°C 75% 11.5 mph WSW18.5 kmh WSW 20.7 mph33.3 kmh 29.72 in1006.4 mb - 0.00 in0.0 mm 0.00 in0.0 mm
07:10 AM 51.5°F10.8°C 43.2°F6.2°C 73% 9.2 mph WSW14.8 kmh WSW 17.3 mph27.8 kmh 29.72 in1006.4 mb - 0.00 in0.0 mm 0.00 in0.0 mm
07:00 AM 52.1°F11.2°C 43.3°F6.3°C 72% 10.4 mph WSW16.7 kmh WSW 17.3 mph27.8 kmh 29.72 in1006.4 mb - 0.00 in0.0 mm 0.00 in0.0 mm
06:50 AM 52.7°F11.5°C 43.9°F6.6°C 72% 13.8 mph WSW22.2 kmh WSW 20.7 mph33.3 kmh 29.72 in1006.4 mb - 0.00 in0.0 mm 0.00 in0.0 mm
06:40 AM 53.3°F11.8°C 45.2°F7.3°C 74% 17.3 mph WSW27.8 kmh WSW 21.9 mph35.2 kmh 29.72 in1006.4 mb - 0.00 in0.0 mm 0.00 in0.0 mm
06:30 AM 53.8°F12.1°C 46.1°F7.8°C 75% 15.0 mph WSW24.1 kmh WSW 19.6 mph31.5 kmh 29.72 in1006.4 mb - 0.00 in0.0 mm 0.00 in0.0 mm
06:20 AM 54.5°F12.5°C 47.1°F8.4°C 76% 8.1 mph WSW13.0 kmh WSW 15.0 mph24.1 kmh 29.71 in1006.1 mb - 0.00 in0.0 mm 0.00 in0.0 mm
06:10 AM 55.3°F12.9°C 47.5°F8.6°C 75% 9.2 mph WSW14.8 kmh WSW 12.7 mph20.4 kmh 29.70 in1005.8 mb - 0.00 in0.0 mm 0.00 in0.0 mm
06:00 AM 55.9°F13.3°C 47.7°F8.7°C 74% 9.2 mph WSW14.8 kmh WSW 16.1 mph25.9 kmh 29.70 in1005.8 mb - 0.00 in0.0 mm 0.00 in0.0 mm
05:50 AM 56.6°F13.7°C 48.8°F9.3°C 75% 10.4 mph WSW16.7 kmh WSW 19.6 mph31.5 kmh 29.70 in1005.8 mb - 0.00 in0.0 mm 0.00 in0.0 mm
05:40 AM 56.6°F13.7°C 50.9°F10.5°C 81% 11.5 mph SW18.5 kmh SW 18.4 mph29.6 kmh 29.70 in1005.8 mb - 0.00 in0.0 mm 0.00 in0.0 mm
05:30 AM 56.9°F13.8°C 51.5°F10.8°C 82% 8.1 mph SW13.0 kmh SW 11.5 mph18.5 kmh 29.70 in1005.8 mb - 0.00 in0.0 mm 0.00 in0.0 mm
05:20 AM 57.2°F14.0°C 52.1°F11.2°C 83% 8.1 mph SW13.0 kmh SW 12.7 mph20.4 kmh 29.70 in1005.8 mb - 0.00 in0.0 mm 0.00 in0.0 mm
05:10 AM 57.4°F14.1°C 52.6°F11.4°C 84% 9.2 mph SW14.8 kmh SW 11.5 mph18.5 kmh 29.69 in1005.4 mb - 0.00 in0.0 mm 0.00 in0.0 mm
05:00 AM 57.2°F14.0°C 53.4°F11.9°C 87% 8.1 mph SW13.0 kmh SW 11.5 mph18.5 kmh 29.69 in1005.4 mb - 0.00 in0.0 mm 0.00 in0.0 mm
04:50 AM 57.0°F13.9°C 54.1°F12.3°C 90% 8.1 mph SW13.0 kmh SW 16.1 mph25.9 kmh 29.69 in1005.4 mb - 0.00 in0.0 mm 0.00 in0.0 mm
04:40 AM 57.2°F14.0°C 54.6°F12.6°C 91% 6.9 mph SSW11.1 kmh SSW 12.7 mph20.4 kmh 29.68 in1005.1 mb - 0.00 in0.0 mm 0.00 in0.0 mm
04:30 AM 57.3°F14.1°C 54.7°F12.6°C 91% 9.2 mph SW14.8 kmh SW 11.5 mph18.5 kmh 29.68 in1005.1 mb - 0.00 in0.0 mm 0.00 in0.0 mm
04:20 AM 57.5°F14.2°C 55.2°F12.9°C 92% 8.1 mph SSW13.0 kmh SSW 11.5 mph18.5 kmh 29.68 in1005.1 mb - 0.00 in0.0 mm 0.00 in0.0 mm
04:10 AM 57.8°F14.3°C 55.5°F13.1°C 92% 9.2 mph SSW14.8 kmh SSW 12.7 mph20.4 kmh 29.67 in1004.7 mb - 0.00 in0.0 mm 0.00 in0.0 mm
04:00 AM 58.0°F14.4°C 55.4°F13.0°C 91% 8.1 mph SSW13.0 kmh SSW 11.5 mph18.5 kmh 29.67 in1004.7 mb - 0.00 in0.0 mm 0.00 in0.0 mm
03:50 AM 58.2°F14.6°C 55.9°F13.3°C 92% 6.9 mph S11.1 kmh S 13.8 mph22.2 kmh 29.68 in1005.1 mb - 0.00 in0.0 mm 0.00 in0.0 mm
03:40 AM 58.4°F14.7°C 55.8°F13.2°C 91% 9.2 mph S14.8 kmh S 13.8 mph22.2 kmh 29.67 in1004.7 mb - 0.00 in0.0 mm 0.00 in0.0 mm
03:30 AM 58.6°F14.8°C 56.0°F13.3°C 91% 9.2 mph S14.8 kmh S 13.8 mph22.2 kmh 29.67 in1004.7 mb - 0.00 in0.0 mm 0.00 in0.0 mm
03:20 AM 58.8°F14.9°C 56.2°F13.4°C 91% 9.2 mph S14.8 kmh S 12.7 mph20.4 kmh 29.67 in1004.7 mb - 0.00 in0.0 mm 0.00 in0.0 mm
03:10 AM 59.1°F15.1°C 56.5°F13.6°C 91% 10.4 mph SSW16.7 kmh SSW 11.5 mph18.5 kmh 29.68 in1005.1 mb - 0.00 in0.0 mm 0.00 in0.0 mm
03:00 AM 59.4°F15.2°C 56.8°F13.8°C 91% 10.4 mph S16.7 kmh S 18.4 mph29.6 kmh 29.68 in1005.1 mb - 0.00 in0.0 mm 0.00 in0.0 mm
02:50 AM 59.5°F15.3°C 56.9°F13.8°C 91% 12.7 mph S20.4 kmh S 19.6 mph31.5 kmh 29.69 in1005.4 mb - 0.00 in0.0 mm 0.00 in0.0 mm
02:40 AM 59.8°F15.4°C 57.1°F13.9°C 91% 12.7 mph S20.4 kmh S 18.4 mph29.6 kmh 29.68 in1005.1 mb - 0.00 in0.0 mm 0.00 in0.0 mm
02:30 AM 60.0°F15.6°C 57.4°F14.1°C 91% 17.3 mph S27.8 kmh S 25.3 mph40.7 kmh 29.69 in1005.4 mb - 0.00 in0.0 mm 0.00 in0.0 mm
02:20 AM 60.1°F15.6°C 57.5°F14.2°C 91% 17.3 mph S27.8 kmh S 20.7 mph33.3 kmh 29.70 in1005.8 mb - 0.00 in0.0 mm 0.00 in0.0 mm
02:10 AM 60.2°F15.7°C 57.6°F14.2°C 91% 16.1 mph S25.9 kmh S 19.6 mph31.5 kmh 29.70 in1005.8 mb - 0.00 in0.0 mm 0.00 in0.0 mm
02:00 AM 60.2°F15.7°C 57.9°F14.4°C 92% 17.3 mph S27.8 kmh S 25.3 mph40.7 kmh 29.70 in1005.8 mb - 0.00 in0.0 mm 0.00 in0.0 mm
01:50 AM 60.1°F15.6°C 57.8°F14.3°C 92% 15.0 mph S24.1 kmh S 19.6 mph31.5 kmh 29.71 in1006.1 mb - 0.00 in0.0 mm 0.00 in0.0 mm
01:40 AM 60.0°F15.6°C 57.7°F14.3°C 92% 16.1 mph S25.9 kmh S 24.2 mph38.9 kmh 29.72 in1006.4 mb - 0.00 in0.0 mm 0.00 in0.0 mm
01:30 AM 59.8°F15.4°C 57.5°F14.2°C 92% 13.8 mph S22.2 kmh S 27.6 mph44.4 kmh 29.72 in1006.4 mb - 0.00 in0.0 mm 0.00 in0.0 mm
01:20 AM 59.6°F15.3°C 57.3°F14.1°C 92% 15.0 mph S24.1 kmh S 19.6 mph31.5 kmh 29.73 in1006.8 mb - 0.00 in0.0 mm 0.00 in0.0 mm
01:10 AM 59.4°F15.2°C 57.1°F13.9°C 92% 12.7 mph S20.4 kmh S 18.4 mph29.6 kmh 29.73 in1006.8 mb - 0.00 in0.0 mm 0.00 in0.0 mm
01:00 AM 59.3°F15.2°C 57.0°F13.9°C 92% 11.5 mph S18.5 kmh S 23.0 mph37.0 kmh 29.73 in1006.8 mb - 0.00 in0.0 mm 0.00 in0.0 mm
12:50 AM 59.1°F15.1°C 56.8°F13.8°C 92% 13.8 mph S22.2 kmh S 20.7 mph33.3 kmh 29.74 in1007.1 mb - 0.00 in0.0 mm 0.00 in0.0 mm
12:40 AM 59.0°F15.0°C 56.7°F13.7°C 92% 13.8 mph S22.2 kmh S 17.3 mph27.8 kmh 29.74 in1007.1 mb - 0.00 in0.0 mm 0.00 in0.0 mm
12:30 AM 58.8°F14.9°C 56.5°F13.6°C 92% 10.4 mph S16.7 kmh S 21.9 mph35.2 kmh 29.74 in1007.1 mb - 0.00 in0.0 mm 0.00 in0.0 mm
12:20 AM 58.7°F14.8°C 56.0°F13.3°C 91% 16.1 mph S25.9 kmh S 20.7 mph33.3 kmh 29.74 in1007.1 mb - 0.00 in0.0 mm 0.00 in0.0 mm
12:10 AM 58.5°F14.7°C 55.9°F13.3°C 91% 13.8 mph S22.2 kmh S 19.6 mph31.5 kmh 29.74 in1007.1 mb - 0.00 in0.0 mm 0.00 in0.0 mm
12:00 AM 58.4°F14.7°C 55.8°F13.2°C 91% 17.3 mph S27.8 kmh S 24.2 mph38.9 kmh 29.75 in1007.5 mb - 0.00 in0.0 mm 0.00 in0.0 mm